Terminal Aerodrome Forecast
Issued by NWS

Home | Current Version | Previous Version | Text Only | Print | Product List | Glossary On
Versions: 1 2 3 4 5 6 7 8 9 10 11 12 13 14 15 16
930
FTUS42 KTBW 251141
TAFRSW
TAF
KRSW 251141Z 2512/2612 VRB03KT 4SM BR VV003
      TEMPO 2512/2515 1SM BR OVC002
     FM251500 24006KT P6SM BKN015
     FM251700 27008KT P6SM SCT035
     FM260300 32005KT P6SM FEW250
     FM260900 36006KT P6SM FEW250=

USA.gov is the U.S. government's official web portal to all federal, state and local government web resources and services.